sensor_id;sensor_type;location;lat;lon;timestamp;P1;durP1;ratioP1;P2;durP2;ratioP2
20557;SDS011;10437;48.156;11.530;2023-02-01T00:02:02;4.13;;;1.93;;
20557;SDS011;10437;48.156;11.530;2023-02-01T00:04:29;3.40;;;2.23;;
20557;SDS011;10437;48.156;11.530;2023-02-01T00:06:56;4.20;;;2.20;;
20557;SDS011;10437;48.156;11.530;2023-02-01T00:09:23;4.83;;;2.20;;
20557;SDS011;10437;48.156;11.530;2023-02-01T00:11:50;3.57;;;2.30;;
20557;SDS011;10437;48.156;11.530;2023-02-01T00:14:19;3.67;;;2.00;;
20557;SDS011;10437;48.156;11.530;2023-02-01T00:16:46;4.30;;;2.30;;
20557;SDS011;10437;48.156;11.530;2023-02-01T00:19:13;5.70;;;2.20;;
20557;SDS011;10437;48.156;11.530;2023-02-01T00:21:42;4.83;;;2.27;;
20557;SDS011;10437;48.156;11.530;2023-02-01T00:24:10;6.23;;;2.70;;
20557;SDS011;10437;48.156;11.530;2023-02-01T00:26:38;5.00;;;2.30;;
20557;SDS011;10437;48.156;11.530;2023-02-01T00:29:08;3.57;;;2.13;;
20557;SDS011;10437;48.156;11.530;2023-02-01T00:31:38;6.00;;;2.17;;
20557;SDS011;10437;48.156;11.530;2023-02-01T00:34:05;3.93;;;2.30;;
20557;SDS011;10437;48.156;11.530;2023-02-01T00:36:33;4.77;;;2.20;;
20557;SDS011;10437;48.156;11.530;2023-02-01T00:39:01;5.97;;;2.40;;
20557;SDS011;10437;48.156;11.530;2023-02-01T00:41:28;5.57;;;2.23;;
20557;SDS011;10437;48.156;11.530;2023-02-01T00:43:55;4.73;;;2.20;;
20557;SDS011;10437;48.156;11.530;2023-02-01T00:46:22;4.90;;;2.67;;
20557;SDS011;10437;48.156;11.530;2023-02-01T00:48:51;5.63;;;2.30;;
20557;SDS011;10437;48.156;11.530;2023-02-01T00:51:19;7.03;;;2.43;;
20557;SDS011;10437;48.156;11.530;2023-02-01T00:53:46;4.87;;;2.20;;
20557;SDS011;10437;48.156;11.530;2023-02-01T00:56:13;4.93;;;2.60;;
20557;SDS011;10437;48.156;11.530;2023-02-01T00:58:40;5.40;;;2.70;;
20557;SDS011;10437;48.156;11.530;2023-02-01T01:01:08;5.83;;;2.67;;
20557;SDS011;10437;48.156;11.530;2023-02-01T01:03:37;3.97;;;2.73;;
20557;SDS011;10437;48.156;11.530;2023-02-01T01:06:06;6.80;;;3.00;;
20557;SDS011;10437;48.156;11.530;2023-02-01T01:08:35;4.80;;;2.73;;
20557;SDS011;10437;48.156;11.530;2023-02-01T01:11:05;5.10;;;2.60;;
20557;SDS011;10437;48.156;11.530;2023-02-01T01:13:33;5.13;;;2.47;;
20557;SDS011;10437;48.156;11.530;2023-02-01T01:16:00;6.97;;;2.90;;
20557;SDS011;10437;48.156;11.530;2023-02-01T01:18:28;5.47;;;2.83;;
20557;SDS011;10437;48.156;11.530;2023-02-01T01:20:55;7.00;;;3.27;;
20557;SDS011;10437;48.156;11.530;2023-02-01T01:23:24;5.27;;;2.93;;
20557;SDS011;10437;48.156;11.530;2023-02-01T01:25:51;6.47;;;2.93;;
20557;SDS011;10437;48.156;11.530;2023-02-01T01:28:18;6.53;;;2.90;;
20557;SDS011;10437;48.156;11.530;2023-02-01T01:30:45;5.90;;;2.97;;
20557;SDS011;10437;48.156;11.530;2023-02-01T01:33:12;7.67;;;3.73;;
20557;SDS011;10437;48.156;11.530;2023-02-01T01:35:39;4.53;;;2.97;;
20557;SDS011;10437;48.156;11.530;2023-02-01T01:38:08;7.70;;;3.30;;
20557;SDS011;10437;48.156;11.530;2023-02-01T01:40:37;6.30;;;3.07;;
20557;SDS011;10437;48.156;11.530;2023-02-01T01:43:09;5.97;;;2.80;;
20557;SDS011;10437;48.156;11.530;2023-02-01T01:45:39;7.07;;;3.47;;
20557;SDS011;10437;48.156;11.530;2023-02-01T01:48:07;7.33;;;3.40;;
20557;SDS011;10437;48.156;11.530;2023-02-01T01:50:36;7.17;;;3.20;;
20557;SDS011;10437;48.156;11.530;2023-02-01T01:53:06;5.23;;;2.80;;
20557;SDS011;10437;48.156;11.530;2023-02-01T01:55:36;8.47;;;3.50;;
20557;SDS011;10437;48.156;11.530;2023-02-01T01:58:06;6.10;;;3.23;;
20557;SDS011;10437;48.156;11.530;2023-02-01T02:00:37;6.13;;;3.50;;
20557;SDS011;10437;48.156;11.530;2023-02-01T02:03:06;7.83;;;3.77;;
20557;SDS011;10437;48.156;11.530;2023-02-01T02:05:34;7.33;;;3.67;;
20557;SDS011;10437;48.156;11.530;2023-02-01T02:08:01;8.93;;;3.63;;
20557;SDS011;10437;48.156;11.530;2023-02-01T02:10:28;7.70;;;3.70;;
20557;SDS011;10437;48.156;11.530;2023-02-01T02:13:11;7.37;;;4.10;;
20557;SDS011;10437;48.156;11.530;2023-02-01T02:15:41;7.13;;;3.73;;
20557;SDS011;10437;48.156;11.530;2023-02-01T02:18:10;10.13;;;4.33;;
20557;SDS011;10437;48.156;11.530;2023-02-01T02:23:50;7.40;;;3.80;;
20557;SDS011;10437;48.156;11.530;2023-02-01T02:26:28;8.40;;;3.93;;
20557;SDS011;10437;48.156;11.530;2023-02-01T02:32:02;8.00;;;4.00;;
20557;SDS011;10437;48.156;11.530;2023-02-01T02:34:33;8.33;;;3.53;;
20557;SDS011;10437;48.156;11.530;2023-02-01T02:37:04;7.27;;;3.77;;
20557;SDS011;10437;48.156;11.530;2023-02-01T02:39:38;7.40;;;3.73;;
20557;SDS011;10437;48.156;11.530;2023-02-01T02:42:17;6.73;;;3.17;;
20557;SDS011;10437;48.156;11.530;2023-02-01T02:45:12;7.97;;;3.90;;
20557;SDS011;10437;48.156;11.530;2023-02-01T02:48:00;6.57;;;3.77;;
20557;SDS011;10437;48.156;11.530;2023-02-01T02:50:36;6.63;;;3.57;;
20557;SDS011;10437;48.156;11.530;2023-02-01T02:53:23;6.57;;;3.70;;
20557;SDS011;10437;48.156;11.530;2023-02-01T02:56:12;7.23;;;3.60;;
20557;SDS011;10437;48.156;11.530;2023-02-01T02:58:57;7.30;;;3.70;;
20557;SDS011;10437;48.156;11.530;2023-02-01T03:01:43;5.90;;;3.30;;
20557;SDS011;10437;48.156;11.530;2023-02-01T03:04:27;6.00;;;3.10;;
20557;SDS011;10437;48.156;11.530;2023-02-01T03:06:56;5.20;;;3.10;;
20557;SDS011;10437;48.156;11.530;2023-02-01T03:09:24;6.73;;;3.67;;
20557;SDS011;10437;48.156;11.530;2023-02-01T03:11:58;7.60;;;3.60;;
20557;SDS011;10437;48.156;11.530;2023-02-01T03:14:47;9.60;;;3.30;;
20557;SDS011;10437;48.156;11.530;2023-02-01T03:17:17;6.97;;;3.33;;
20557;SDS011;10437;48.156;11.530;2023-02-01T03:19:48;8.20;;;3.33;;
20557;SDS011;10437;48.156;11.530;2023-02-01T03:22:20;5.70;;;3.57;;
20557;SDS011;10437;48.156;11.530;2023-02-01T03:24:49;5.67;;;3.20;;
20557;SDS011;10437;48.156;11.530;2023-02-01T03:27:20;7.03;;;3.50;;
20557;SDS011;10437;48.156;11.530;2023-02-01T03:29:51;5.97;;;3.30;;
20557;SDS011;10437;48.156;11.530;2023-02-01T03:32:25;5.40;;;3.00;;
20557;SDS011;10437;48.156;11.530;2023-02-01T03:34:52;5.50;;;3.33;;
20557;SDS011;10437;48.156;11.530;2023-02-01T03:37:22;6.43;;;2.97;;
20557;SDS011;10437;48.156;11.530;2023-02-01T03:39:52;5.53;;;3.10;;
20557;SDS011;10437;48.156;11.530;2023-02-01T03:42:24;5.50;;;2.97;;
20557;SDS011;10437;48.156;11.530;2023-02-01T03:44:57;9.27;;;3.27;;
20557;SDS011;10437;48.156;11.530;2023-02-01T03:47:33;9.80;;;3.40;;
20557;SDS011;10437;48.156;11.530;2023-02-01T03:50:04;5.17;;;3.17;;
20557;SDS011;10437;48.156;11.530;2023-02-01T03:52:34;5.17;;;3.13;;
20557;SDS011;10437;48.156;11.530;2023-02-01T03:55:06;5.50;;;2.90;;
20557;SDS011;10437;48.156;11.530;2023-02-01T03:57:35;7.60;;;3.10;;
20557;SDS011;10437;48.156;11.530;2023-02-01T04:00:04;5.77;;;3.17;;
20557;SDS011;10437;48.156;11.530;2023-02-01T04:02:32;5.50;;;2.83;;
20557;SDS011;10437;48.156;11.530;2023-02-01T04:04:59;5.03;;;2.90;;
20557;SDS011;10437;48.156;11.530;2023-02-01T04:07:27;4.60;;;2.63;;
20557;SDS011;10437;48.156;11.530;2023-02-01T04:09:55;5.37;;;2.70;;
20557;SDS011;10437;48.156;11.530;2023-02-01T04:12:22;9.00;;;2.93;;
20557;SDS011;10437;48.156;11.530;2023-02-01T04:14:49;5.87;;;3.00;;
20557;SDS011;10437;48.156;11.530;2023-02-01T04:17:16;10.17;;;2.90;;
20557;SDS011;10437;48.156;11.530;2023-02-01T04:19:43;5.90;;;2.63;;
20557;SDS011;10437;48.156;11.530;2023-02-01T04:22:10;4.50;;;2.90;;
20557;SDS011;10437;48.156;11.530;2023-02-01T04:24:38;6.30;;;3.23;;
20557;SDS011;10437;48.156;11.530;2023-02-01T04:27:06;5.07;;;2.73;;
20557;SDS011;10437;48.156;11.530;2023-02-01T04:29:33;6.47;;;3.10;;
20557;SDS011;10437;48.156;11.530;2023-02-01T04:32:00;6.03;;;3.40;;
20557;SDS011;10437;48.156;11.530;2023-02-01T04:34:27;5.90;;;3.00;;
20557;SDS011;10437;48.156;11.530;2023-02-01T04:36:55;5.53;;;3.20;;
20557;SDS011;10437;48.156;11.530;2023-02-01T04:39:22;6.93;;;3.20;;
20557;SDS011;10437;48.156;11.530;2023-02-01T04:41:49;5.57;;;2.90;;
20557;SDS011;10437;48.156;11.530;2023-02-01T04:44:18;5.20;;;3.10;;
20557;SDS011;10437;48.156;11.530;2023-02-01T04:46:46;6.07;;;3.23;;
20557;SDS011;10437;48.156;11.530;2023-02-01T04:49:13;5.90;;;3.27;;
20557;SDS011;10437;48.156;11.530;2023-02-01T04:51:41;6.07;;;3.20;;
20557;SDS011;10437;48.156;11.530;2023-02-01T04:54:08;5.20;;;3.07;;
20557;SDS011;10437;48.156;11.530;2023-02-01T04:56:37;7.27;;;3.47;;
20557;SDS011;10437;48.156;11.530;2023-02-01T04:59:04;6.77;;;3.23;;
20557;SDS011;10437;48.156;11.530;2023-02-01T05:01:33;9.13;;;4.07;;
20557;SDS011;10437;48.156;11.530;2023-02-01T05:04:00;5.53;;;3.23;;
20557;SDS011;10437;48.156;11.530;2023-02-01T05:06:27;5.37;;;3.20;;
20557;SDS011;10437;48.156;11.530;2023-02-01T05:08:54;6.97;;;3.87;;
20557;SDS011;10437;48.156;11.530;2023-02-01T05:11:22;6.33;;;3.70;;
20557;SDS011;10437;48.156;11.530;2023-02-01T05:14:06;7.60;;;3.40;;
20557;SDS011;10437;48.156;11.530;2023-02-01T05:16:35;8.03;;;4.20;;
20557;SDS011;10437;48.156;11.530;2023-02-01T05:19:02;9.17;;;3.83;;
20557;SDS011;10437;48.156;11.530;2023-02-01T05:21:29;7.73;;;3.70;;
20557;SDS011;10437;48.156;11.530;2023-02-01T05:23:56;6.53;;;3.83;;
20557;SDS011;10437;48.156;11.530;2023-02-01T05:26:35;5.73;;;3.43;;
20557;SDS011;10437;48.156;11.530;2023-02-01T05:29:03;6.00;;;3.47;;
20557;SDS011;10437;48.156;11.530;2023-02-01T05:31:30;8.57;;;3.43;;
20557;SDS011;10437;48.156;11.530;2023-02-01T05:33:59;5.77;;;3.67;;
20557;SDS011;10437;48.156;11.530;2023-02-01T05:36:26;7.20;;;3.90;;
20557;SDS011;10437;48.156;11.530;2023-02-01T05:38:53;9.37;;;3.77;;
20557;SDS011;10437;48.156;11.530;2023-02-01T05:41:20;8.43;;;3.70;;
20557;SDS011;10437;48.156;11.530;2023-02-01T05:43:47;6.93;;;3.70;;
20557;SDS011;10437;48.156;11.530;2023-02-01T05:46:14;6.83;;;3.50;;
20557;SDS011;10437;48.156;11.530;2023-02-01T05:48:42;7.17;;;3.70;;
20557;SDS011;10437;48.156;11.530;2023-02-01T05:51:11;6.97;;;3.23;;
20557;SDS011;10437;48.156;11.530;2023-02-01T05:53:38;5.90;;;3.23;;
20557;SDS011;10437;48.156;11.530;2023-02-01T05:56:05;8.63;;;4.10;;
20557;SDS011;10437;48.156;11.530;2023-02-01T05:58:32;6.70;;;3.47;;
20557;SDS011;10437;48.156;11.530;2023-02-01T06:01:00;8.10;;;3.93;;
20557;SDS011;10437;48.156;11.530;2023-02-01T06:03:27;7.20;;;3.50;;
20557;SDS011;10437;48.156;11.530;2023-02-01T06:05:54;8.40;;;3.60;;
20557;SDS011;10437;48.156;11.530;2023-02-01T06:08:23;6.60;;;3.70;;
20557;SDS011;10437;48.156;11.530;2023-02-01T06:10:50;5.53;;;3.47;;
20557;SDS011;10437;48.156;11.530;2023-02-01T06:13:18;7.83;;;3.23;;
20557;SDS011;10437;48.156;11.530;2023-02-01T06:15:45;6.70;;;3.67;;
20557;SDS011;10437;48.156;11.530;2023-02-01T06:18:12;8.63;;;4.03;;
20557;SDS011;10437;48.156;11.530;2023-02-01T06:20:40;7.93;;;3.40;;
20557;SDS011;10437;48.156;11.530;2023-02-01T06:23:07;7.00;;;3.13;;
20557;SDS011;10437;48.156;11.530;2023-02-01T06:25:36;6.93;;;3.27;;
20557;SDS011;10437;48.156;11.530;2023-02-01T06:28:03;5.40;;;3.43;;
20557;SDS011;10437;48.156;11.530;2023-02-01T06:30:31;6.13;;;3.47;;
20557;SDS011;10437;48.156;11.530;2023-02-01T06:32:58;5.97;;;3.30;;
20557;SDS011;10437;48.156;11.530;2023-02-01T06:35:25;7.47;;;3.63;;
20557;SDS011;10437;48.156;11.530;2023-02-01T06:37:52;7.13;;;3.63;;
20557;SDS011;10437;48.156;11.530;2023-02-01T06:40:19;7.17;;;3.40;;
20557;SDS011;10437;48.156;11.530;2023-02-01T06:42:49;6.20;;;3.80;;
20557;SDS011;10437;48.156;11.530;2023-02-01T06:45:16;8.00;;;3.50;;
20557;SDS011;10437;48.156;11.530;2023-02-01T06:47:43;7.63;;;3.70;;
20557;SDS011;10437;48.156;11.530;2023-02-01T06:50:10;8.77;;;3.30;;
20557;SDS011;10437;48.156;11.530;2023-02-01T06:52:37;7.10;;;3.20;;
20557;SDS011;10437;48.156;11.530;2023-02-01T06:55:05;5.77;;;3.43;;
20557;SDS011;10437;48.156;11.530;2023-02-01T06:57:32;7.43;;;3.37;;
20557;SDS011;10437;48.156;11.530;2023-02-01T07:00:02;7.07;;;3.90;;
20557;SDS011;10437;48.156;11.530;2023-02-01T07:02:30;5.87;;;3.40;;
20557;SDS011;10437;48.156;11.530;2023-02-01T07:04:57;7.57;;;3.50;;
20557;SDS011;10437;48.156;11.530;2023-02-01T07:07:24;5.13;;;3.23;;
20557;SDS011;10437;48.156;11.530;2023-02-01T07:09:51;5.37;;;3.10;;
20557;SDS011;10437;48.156;11.530;2023-02-01T07:12:18;5.93;;;3.20;;
20557;SDS011;10437;48.156;11.530;2023-02-01T07:14:46;6.13;;;3.07;;
20557;SDS011;10437;48.156;11.530;2023-02-01T07:17:14;7.57;;;3.40;;
20557;SDS011;10437;48.156;11.530;2023-02-01T07:19:41;6.03;;;3.07;;
20557;SDS011;10437;48.156;11.530;2023-02-01T07:22:08;5.83;;;3.10;;
20557;SDS011;10437;48.156;11.530;2023-02-01T07:24:35;5.90;;;2.90;;
20557;SDS011;10437;48.156;11.530;2023-02-01T07:27:02;6.90;;;2.80;;
20557;SDS011;10437;48.156;11.530;2023-02-01T07:29:30;4.70;;;2.60;;
20557;SDS011;10437;48.156;11.530;2023-02-01T07:31:57;5.13;;;2.77;;
20557;SDS011;10437;48.156;11.530;2023-02-01T07:34:26;7.13;;;3.10;;
20557;SDS011;10437;48.156;11.530;2023-02-01T07:36:53;4.33;;;2.43;;
20557;SDS011;10437;48.156;11.530;2023-02-01T07:39:21;5.33;;;2.27;;
20557;SDS011;10437;48.156;11.530;2023-02-01T07:41:48;6.40;;;2.67;;
20557;SDS011;10437;48.156;11.530;2023-02-01T07:44:15;4.80;;;2.23;;
20557;SDS011;10437;48.156;11.530;2023-02-01T07:46:47;5.97;;;2.67;;
20557;SDS011;10437;48.156;11.530;2023-02-01T07:49:14;5.87;;;2.13;;
20557;SDS011;10437;48.156;11.530;2023-02-01T07:51:43;5.07;;;2.80;;
20557;SDS011;10437;48.156;11.530;2023-02-01T07:54:10;5.77;;;2.20;;
20557;SDS011;10437;48.156;11.530;2023-02-01T07:56:38;3.97;;;2.43;;
20557;SDS011;10437;48.156;11.530;2023-02-01T07:59:05;5.90;;;2.20;;
20557;SDS011;10437;48.156;11.530;2023-02-01T08:01:32;4.03;;;2.13;;
20557;SDS011;10437;48.156;11.530;2023-02-01T08:03:59;5.13;;;2.17;;
20557;SDS011;10437;48.156;11.530;2023-02-01T08:06:26;3.43;;;1.87;;
20557;SDS011;10437;48.156;11.530;2023-02-01T08:09:00;4.90;;;2.30;;
20557;SDS011;10437;48.156;11.530;2023-02-01T08:11:27;4.20;;;2.00;;
20557;SDS011;10437;48.156;11.530;2023-02-01T08:13:54;4.47;;;2.23;;
20557;SDS011;10437;48.156;11.530;2023-02-01T08:16:22;3.33;;;2.07;;
20557;SDS011;10437;48.156;11.530;2023-02-01T08:18:49;2.57;;;1.77;;
20557;SDS011;10437;48.156;11.530;2023-02-01T08:21:17;3.63;;;1.90;;
20557;SDS011;10437;48.156;11.530;2023-02-01T08:23:45;3.07;;;2.10;;
20557;SDS011;10437;48.156;11.530;2023-02-01T08:26:14;4.27;;;2.13;;
20557;SDS011;10437;48.156;11.530;2023-02-01T08:28:42;3.43;;;1.83;;
20557;SDS011;10437;48.156;11.530;2023-02-01T08:31:10;3.40;;;1.70;;
20557;SDS011;10437;48.156;11.530;2023-02-01T08:33:40;3.07;;;1.70;;
20557;SDS011;10437;48.156;11.530;2023-02-01T08:36:08;2.93;;;1.73;;
20557;SDS011;10437;48.156;11.530;2023-02-01T08:38:36;2.70;;;1.60;;
20557;SDS011;10437;48.156;11.530;2023-02-01T08:41:04;3.37;;;1.77;;
20557;SDS011;10437;48.156;11.530;2023-02-01T08:43:33;3.53;;;1.80;;
20557;SDS011;10437;48.156;11.530;2023-02-01T08:46:01;4.37;;;2.10;;
20557;SDS011;10437;48.156;11.530;2023-02-01T08:48:28;3.53;;;2.13;;
20557;SDS011;10437;48.156;11.530;2023-02-01T08:50:55;7.20;;;2.27;;
20557;SDS011;10437;48.156;11.530;2023-02-01T08:53:22;5.63;;;2.40;;
20557;SDS011;10437;48.156;11.530;2023-02-01T08:55:49;2.63;;;1.80;;
20557;SDS011;10437;48.156;11.530;2023-02-01T08:58:16;5.60;;;2.10;;
20557;SDS011;10437;48.156;11.530;2023-02-01T09:00:46;5.63;;;2.40;;
20557;SDS011;10437;48.156;11.530;2023-02-01T09:03:13;3.13;;;1.83;;
20557;SDS011;10437;48.156;11.530;2023-02-01T09:05:40;3.27;;;2.10;;
20557;SDS011;10437;48.156;11.530;2023-02-01T09:08:07;4.23;;;1.80;;
20557;SDS011;10437;48.156;11.530;2023-02-01T09:10:34;3.93;;;2.03;;
20557;SDS011;10437;48.156;11.530;2023-02-01T09:13:02;4.87;;;2.10;;
20557;SDS011;10437;48.156;11.530;2023-02-01T09:15:29;4.57;;;2.20;;
20557;SDS011;10437;48.156;11.530;2023-02-01T09:17:58;4.00;;;2.13;;
20557;SDS011;10437;48.156;11.530;2023-02-01T09:20:25;6.50;;;2.40;;
20557;SDS011;10437;48.156;11.530;2023-02-01T09:22:54;5.10;;;2.30;;
20557;SDS011;10437;48.156;11.530;2023-02-01T09:25:21;5.43;;;2.00;;
20557;SDS011;10437;48.156;11.530;2023-02-01T09:27:48;6.57;;;2.00;;
20557;SDS011;10437;48.156;11.530;2023-02-01T09:30:15;7.07;;;2.23;;
20557;SDS011;10437;48.156;11.530;2023-02-01T09:32:42;2.40;;;1.80;;
20557;SDS011;10437;48.156;11.530;2023-02-01T09:35:11;3.00;;;1.70;;
20557;SDS011;10437;48.156;11.530;2023-02-01T09:37:38;3.17;;;1.80;;
20557;SDS011;10437;48.156;11.530;2023-02-01T09:40:05;4.17;;;1.80;;
20557;SDS011;10437;48.156;11.530;2023-02-01T09:42:41;3.83;;;1.90;;
20557;SDS011;10437;48.156;11.530;2023-02-01T09:45:17;5.87;;;2.10;;
20557;SDS011;10437;48.156;11.530;2023-02-01T09:47:51;3.40;;;1.73;;
20557;SDS011;10437;48.156;11.530;2023-02-01T09:50:22;5.33;;;1.60;;
20557;SDS011;10437;48.156;11.530;2023-02-01T09:52:52;3.30;;;2.00;;
20557;SDS011;10437;48.156;11.530;2023-02-01T09:55:24;2.90;;;1.90;;
20557;SDS011;10437;48.156;11.530;2023-02-01T09:57:55;3.87;;;1.83;;
20557;SDS011;10437;48.156;11.530;2023-02-01T10:00:27;3.60;;;2.10;;
20557;SDS011;10437;48.156;11.530;2023-02-01T10:02:59;4.80;;;1.97;;
20557;SDS011;10437;48.156;11.530;2023-02-01T10:05:34;3.23;;;1.80;;
20557;SDS011;10437;48.156;11.530;2023-02-01T10:08:04;3.50;;;1.90;;
20557;SDS011;10437;48.156;11.530;2023-02-01T10:10:38;6.10;;;1.97;;
20557;SDS011;10437;48.156;11.530;2023-02-01T10:13:18;4.73;;;1.90;;
20557;SDS011;10437;48.156;11.530;2023-02-01T10:18:42;4.63;;;2.10;;
20557;SDS011;10437;48.156;11.530;2023-02-01T10:21:26;5.10;;;2.10;;
20557;SDS011;10437;48.156;11.530;2023-02-01T10:24:02;4.50;;;2.00;;
20557;SDS011;10437;48.156;11.530;2023-02-01T10:26:44;4.27;;;2.27;;
20557;SDS011;10437;48.156;11.530;2023-02-01T10:29:14;3.83;;;2.17;;
20557;SDS011;10437;48.156;11.530;2023-02-01T10:31:43;3.60;;;1.73;;
20557;SDS011;10437;48.156;11.530;2023-02-01T10:34:13;5.60;;;2.73;;
20557;SDS011;10437;48.156;11.530;2023-02-01T10:36:46;9.70;;;3.47;;
20557;SDS011;10437;48.156;11.530;2023-02-01T10:39:18;6.67;;;1.93;;
20557;SDS011;10437;48.156;11.530;2023-02-01T10:41:45;9.40;;;2.40;;
20557;SDS011;10437;48.156;11.530;2023-02-01T10:44:14;8.60;;;2.23;;
20557;SDS011;10437;48.156;11.530;2023-02-01T10:46:43;4.50;;;2.07;;
20557;SDS011;10437;48.156;11.530;2023-02-01T10:49:11;3.03;;;1.60;;
20557;SDS011;10437;48.156;11.530;2023-02-01T10:51:44;4.83;;;1.80;;
20557;SDS011;10437;48.156;11.530;2023-02-01T10:54:14;3.80;;;2.00;;
20557;SDS011;10437;48.156;11.530;2023-02-01T10:56:45;2.80;;;1.57;;
20557;SDS011;10437;48.156;11.530;2023-02-01T10:59:17;5.23;;;2.17;;
20557;SDS011;10437;48.156;11.530;2023-02-01T11:01:45;4.20;;;1.93;;
20557;SDS011;10437;48.156;11.530;2023-02-01T11:04:13;5.53;;;2.33;;
20557;SDS011;10437;48.156;11.530;2023-02-01T11:06:41;2.73;;;1.80;;
20557;SDS011;10437;48.156;11.530;2023-02-01T11:09:14;2.77;;;1.80;;
20557;SDS011;10437;48.156;11.530;2023-02-01T11:11:53;4.60;;;2.10;;
20557;SDS011;10437;48.156;11.530;2023-02-01T11:14:26;5.67;;;2.00;;
20557;SDS011;10437;48.156;11.530;2023-02-01T11:16:54;4.47;;;2.00;;
20557;SDS011;10437;48.156;11.530;2023-02-01T11:19:23;3.47;;;2.10;;
20557;SDS011;10437;48.156;11.530;2023-02-01T11:21:51;8.43;;;2.03;;
20557;SDS011;10437;48.156;11.530;2023-02-01T11:24:21;4.53;;;2.00;;
20557;SDS011;10437;48.156;11.530;2023-02-01T11:26:49;5.53;;;2.00;;
20557;SDS011;10437;48.156;11.530;2023-02-01T11:29:18;3.47;;;2.10;;
20557;SDS011;10437;48.156;11.530;2023-02-01T11:31:53;4.00;;;2.30;;
20557;SDS011;10437;48.156;11.530;2023-02-01T11:34:22;3.50;;;2.13;;
20557;SDS011;10437;48.156;11.530;2023-02-01T11:36:52;6.03;;;2.60;;
20557;SDS011;10437;48.156;11.530;2023-02-01T11:39:25;5.07;;;2.37;;
20557;SDS011;10437;48.156;11.530;2023-02-01T11:41:58;6.73;;;2.33;;
20557;SDS011;10437;48.156;11.530;2023-02-01T11:44:30;4.97;;;1.97;;
20557;SDS011;10437;48.156;11.530;2023-02-01T11:49:41;7.17;;;2.47;;
20557;SDS011;10437;48.156;11.530;2023-02-01T11:52:10;6.73;;;2.97;;
20557;SDS011;10437;48.156;11.530;2023-02-01T11:54:52;5.90;;;2.53;;
20557;SDS011;10437;48.156;11.530;2023-02-01T11:57:29;8.30;;;2.60;;
20557;SDS011;10437;48.156;11.530;2023-02-01T12:00:02;6.03;;;2.83;;
20557;SDS011;10437;48.156;11.530;2023-02-01T12:02:51;5.73;;;2.80;;
20557;SDS011;10437;48.156;11.530;2023-02-01T12:05:43;5.40;;;2.83;;
20557;SDS011;10437;48.156;11.530;2023-02-01T12:08:41;5.33;;;2.67;;
20557;SDS011;10437;48.156;11.530;2023-02-01T12:11:32;7.63;;;3.37;;
20557;SDS011;10437;48.156;11.530;2023-02-01T12:14:05;9.63;;;2.73;;
20557;SDS011;10437;48.156;11.530;2023-02-01T12:16:50;6.60;;;2.73;;
20557;SDS011;10437;48.156;11.530;2023-02-01T12:19:37;6.40;;;2.20;;
20557;SDS011;10437;48.156;11.530;2023-02-01T12:22:15;5.60;;;2.60;;
20557;SDS011;10437;48.156;11.530;2023-02-01T12:24:56;8.37;;;3.07;;
20557;SDS011;10437;48.156;11.530;2023-02-01T12:30:17;9.00;;;2.67;;
20557;SDS011;10437;48.156;11.530;2023-02-01T12:32:53;4.60;;;2.27;;
20557;SDS011;10437;48.156;11.530;2023-02-01T12:38:17;6.57;;;2.50;;
20557;SDS011;10437;48.156;11.530;2023-02-01T12:40:58;8.27;;;2.67;;
20557;SDS011;10437;48.156;11.530;2023-02-01T12:43:36;6.77;;;2.70;;
20557;SDS011;10437;48.156;11.530;2023-02-01T12:46:08;6.37;;;2.40;;
20557;SDS011;10437;48.156;11.530;2023-02-01T12:48:39;9.50;;;2.60;;
20557;SDS011;10437;48.156;11.530;2023-02-01T12:51:09;5.73;;;2.47;;
20557;SDS011;10437;48.156;11.530;2023-02-01T12:53:44;5.70;;;2.33;;
20557;SDS011;10437;48.156;11.530;2023-02-01T12:56:25;4.57;;;2.20;;
20557;SDS011;10437;48.156;11.530;2023-02-01T12:58:57;5.47;;;2.33;;
20557;SDS011;10437;48.156;11.530;2023-02-01T13:01:28;5.17;;;2.60;;
20557;SDS011;10437;48.156;11.530;2023-02-01T13:03:58;6.97;;;2.40;;
20557;SDS011;10437;48.156;11.530;2023-02-01T13:06:31;7.77;;;2.23;;
20557;SDS011;10437;48.156;11.530;2023-02-01T13:09:04;8.00;;;2.30;;
20557;SDS011;10437;48.156;11.530;2023-02-01T13:11:33;5.67;;;2.10;;
20557;SDS011;10437;48.156;11.530;2023-02-01T13:14:03;3.17;;;1.90;;
20557;SDS011;10437;48.156;11.530;2023-02-01T13:16:39;4.90;;;2.20;;
20557;SDS011;10437;48.156;11.530;2023-02-01T13:19:10;9.97;;;3.07;;
20557;SDS011;10437;48.156;11.530;2023-02-01T13:21:42;12.07;;;2.20;;
20557;SDS011;10437;48.156;11.530;2023-02-01T13:24:19;4.00;;;2.17;;
20557;SDS011;10437;48.156;11.530;2023-02-01T13:26:47;6.87;;;2.83;;
20557;SDS011;10437;48.156;11.530;2023-02-01T13:29:14;5.57;;;2.23;;
20557;SDS011;10437;48.156;11.530;2023-02-01T13:31:56;6.37;;;2.53;;
20557;SDS011;10437;48.156;11.530;2023-02-01T13:40:39;4.77;;;2.20;;
20557;SDS011;10437;48.156;11.530;2023-02-01T13:43:10;5.40;;;2.47;;
20557;SDS011;10437;48.156;11.530;2023-02-01T13:45:42;5.73;;;2.20;;
20557;SDS011;10437;48.156;11.530;2023-02-01T13:48:18;4.93;;;2.10;;
20557;SDS011;10437;48.156;11.530;2023-02-01T13:50:49;3.47;;;2.10;;
20557;SDS011;10437;48.156;11.530;2023-02-01T13:53:18;4.37;;;2.40;;
20557;SDS011;10437;48.156;11.530;2023-02-01T13:55:54;6.20;;;2.10;;
20557;SDS011;10437;48.156;11.530;2023-02-01T13:58:29;5.23;;;2.33;;
20557;SDS011;10437;48.156;11.530;2023-02-01T14:03:46;2.57;;;1.80;;
20557;SDS011;10437;48.156;11.530;2023-02-01T14:06:15;6.40;;;2.40;;
20557;SDS011;10437;48.156;11.530;2023-02-01T14:09:18;3.87;;;2.30;;
20557;SDS011;10437;48.156;11.530;2023-02-01T14:11:46;4.17;;;2.03;;
20557;SDS011;10437;48.156;11.530;2023-02-01T14:22:49;6.30;;;2.10;;
20557;SDS011;10437;48.156;11.530;2023-02-01T14:25:16;3.60;;;1.90;;
20557;SDS011;10437;48.156;11.530;2023-02-01T14:27:44;5.43;;;2.27;;
20557;SDS011;10437;48.156;11.530;2023-02-01T14:30:14;3.87;;;1.80;;
20557;SDS011;10437;48.156;11.530;2023-02-01T14:32:42;4.30;;;1.43;;
20557;SDS011;10437;48.156;11.530;2023-02-01T14:35:16;7.03;;;1.90;;
20557;SDS011;10437;48.156;11.530;2023-02-01T14:37:45;4.97;;;1.90;;
20557;SDS011;10437;48.156;11.530;2023-02-01T14:40:18;3.13;;;1.80;;
20557;SDS011;10437;48.156;11.530;2023-02-01T14:42:47;4.17;;;2.00;;
20557;SDS011;10437;48.156;11.530;2023-02-01T14:50:46;9.77;;;2.07;;
20557;SDS011;10437;48.156;11.530;2023-02-01T14:53:16;3.57;;;1.70;;
20557;SDS011;10437;48.156;11.530;2023-02-01T14:55:47;4.43;;;1.80;;
20557;SDS011;10437;48.156;11.530;2023-02-01T14:58:16;5.57;;;1.60;;
20557;SDS011;10437;48.156;11.530;2023-02-01T15:00:50;3.70;;;1.63;;
20557;SDS011;10437;48.156;11.530;2023-02-01T15:03:23;6.40;;;1.77;;
20557;SDS011;10437;48.156;11.530;2023-02-01T15:06:00;3.53;;;1.67;;
20557;SDS011;10437;48.156;11.530;2023-02-01T15:08:30;3.73;;;1.60;;
20557;SDS011;10437;48.156;11.530;2023-02-01T15:11:00;6.80;;;2.00;;
20557;SDS011;10437;48.156;11.530;2023-02-01T15:13:32;6.87;;;1.97;;
20557;SDS011;10437;48.156;11.530;2023-02-01T15:16:00;6.53;;;1.27;;
20557;SDS011;10437;48.156;11.530;2023-02-01T15:18:28;3.27;;;1.60;;
20557;SDS011;10437;48.156;11.530;2023-02-01T15:20:56;2.83;;;1.73;;
20557;SDS011;10437;48.156;11.530;2023-02-01T15:23:23;3.73;;;1.83;;
20557;SDS011;10437;48.156;11.530;2023-02-01T15:25:50;4.33;;;1.93;;
20557;SDS011;10437;48.156;11.530;2023-02-01T15:28:19;3.17;;;1.60;;
20557;SDS011;10437;48.156;11.530;2023-02-01T15:30:56;7.27;;;2.30;;
20557;SDS011;10437;48.156;11.530;2023-02-01T15:33:24;5.30;;;2.10;;